sensor_id;sensor_type;location;lat;lon;timestamp;temperature;humidity
16767;DHT22;8501;49.926;8.404;2023-09-18T00:01:52;23.10;99.90
16767;DHT22;8501;49.926;8.404;2023-09-18T00:04:17;23.20;99.90
16767;DHT22;8501;49.926;8.404;2023-09-18T00:06:43;23.10;99.90
16767;DHT22;8501;49.926;8.404;2023-09-18T00:09:09;23.10;99.90
16767;DHT22;8501;49.926;8.404;2023-09-18T00:11:37;23.00;99.90
16767;DHT22;8501;49.926;8.404;2023-09-18T00:14:04;23.00;99.90
16767;DHT22;8501;49.926;8.404;2023-09-18T00:16:29;22.90;99.90
16767;DHT22;8501;49.926;8.404;2023-09-18T00:18:55;22.90;99.90
16767;DHT22;8501;49.926;8.404;2023-09-18T00:21:21;22.90;99.90
16767;DHT22;8501;49.926;8.404;2023-09-18T00:23:46;22.90;99.90
16767;DHT22;8501;49.926;8.404;2023-09-18T00:26:12;22.90;99.90
16767;DHT22;8501;49.926;8.404;2023-09-18T00:28:37;22.90;99.90
16767;DHT22;8501;49.926;8.404;2023-09-18T00:31:03;22.80;99.90
16767;DHT22;8501;49.926;8.404;2023-09-18T00:33:28;22.80;99.90
16767;DHT22;8501;49.926;8.404;2023-09-18T00:35:54;22.80;99.90
16767;DHT22;8501;49.926;8.404;2023-09-18T00:38:20;22.80;99.90
16767;DHT22;8501;49.926;8.404;2023-09-18T00:40:45;22.70;99.90
16767;DHT22;8501;49.926;8.404;2023-09-18T00:43:11;22.70;99.90
16767;DHT22;8501;49.926;8.404;2023-09-18T00:45:45;22.70;99.90
16767;DHT22;8501;49.926;8.404;2023-09-18T00:48:12;22.70;99.90
16767;DHT22;8501;49.926;8.404;2023-09-18T00:50:37;22.70;99.90
16767;DHT22;8501;49.926;8.404;2023-09-18T00:53:04;22.70;99.90
16767;DHT22;8501;49.926;8.404;2023-09-18T00:55:30;22.70;99.90
16767;DHT22;8501;49.926;8.404;2023-09-18T00:57:56;22.60;99.90
16767;DHT22;8501;49.926;8.404;2023-09-18T01:00:22;22.60;99.90
16767;DHT22;8501;49.926;8.404;2023-09-18T01:02:48;22.50;99.90
16767;DHT22;8501;49.926;8.404;2023-09-18T01:05:14;22.50;99.90
16767;DHT22;8501;49.926;8.404;2023-09-18T01:07:45;22.40;99.90
16767;DHT22;8501;49.926;8.404;2023-09-18T01:10:11;22.50;99.90
16767;DHT22;8501;49.926;8.404;2023-09-18T01:12:47;22.50;99.90
16767;DHT22;8501;49.926;8.404;2023-09-18T01:15:21;22.50;99.90
16767;DHT22;8501;49.926;8.404;2023-09-18T01:17:48;22.60;99.90
16767;DHT22;8501;49.926;8.404;2023-09-18T01:20:14;22.50;99.90
16767;DHT22;8501;49.926;8.404;2023-09-18T01:22:39;22.50;99.90
16767;DHT22;8501;49.926;8.404;2023-09-18T01:25:05;22.40;99.90
16767;DHT22;8501;49.926;8.404;2023-09-18T01:27:32;22.50;99.90
16767;DHT22;8501;49.926;8.404;2023-09-18T01:29:58;22.50;99.90
16767;DHT22;8501;49.926;8.404;2023-09-18T01:32:26;22.40;99.90
16767;DHT22;8501;49.926;8.404;2023-09-18T01:34:54;22.30;99.90
16767;DHT22;8501;49.926;8.404;2023-09-18T01:37:23;22.40;99.90
16767;DHT22;8501;49.926;8.404;2023-09-18T01:39:51;22.30;99.90
16767;DHT22;8501;49.926;8.404;2023-09-18T01:42:17;22.30;99.90
16767;DHT22;8501;49.926;8.404;2023-09-18T01:44:43;22.20;99.90
16767;DHT22;8501;49.926;8.404;2023-09-18T01:47:12;22.10;99.90
16767;DHT22;8501;49.926;8.404;2023-09-18T01:49:39;22.20;99.90
16767;DHT22;8501;49.926;8.404;2023-09-18T01:52:07;22.20;99.90
16767;DHT22;8501;49.926;8.404;2023-09-18T01:54:34;22.20;99.90
16767;DHT22;8501;49.926;8.404;2023-09-18T01:57:00;22.10;99.90
16767;DHT22;8501;49.926;8.404;2023-09-18T01:59:25;22.10;99.90
16767;DHT22;8501;49.926;8.404;2023-09-18T02:01:52;22.10;99.90
16767;DHT22;8501;49.926;8.404;2023-09-18T02:04:19;22.10;99.90
16767;DHT22;8501;49.926;8.404;2023-09-18T02:06:46;22.10;99.90
16767;DHT22;8501;49.926;8.404;2023-09-18T02:09:12;22.20;99.90
16767;DHT22;8501;49.926;8.404;2023-09-18T02:11:43;22.10;99.90
16767;DHT22;8501;49.926;8.404;2023-09-18T02:14:09;22.10;99.90
16767;DHT22;8501;49.926;8.404;2023-09-18T02:16:36;22.20;99.90
16767;DHT22;8501;49.926;8.404;2023-09-18T02:19:03;22.20;99.90
16767;DHT22;8501;49.926;8.404;2023-09-18T02:21:29;22.20;99.90
16767;DHT22;8501;49.926;8.404;2023-09-18T02:23:55;22.20;99.90
16767;DHT22;8501;49.926;8.404;2023-09-18T02:26:22;22.20;99.90
16767;DHT22;8501;49.926;8.404;2023-09-18T02:28:48;22.20;99.90
16767;DHT22;8501;49.926;8.404;2023-09-18T02:31:14;22.30;99.90
16767;DHT22;8501;49.926;8.404;2023-09-18T02:33:40;22.30;99.90
16767;DHT22;8501;49.926;8.404;2023-09-18T02:36:06;22.20;99.90
16767;DHT22;8501;49.926;8.404;2023-09-18T02:38:32;22.30;99.90
16767;DHT22;8501;49.926;8.404;2023-09-18T02:40:58;22.20;99.90
16767;DHT22;8501;49.926;8.404;2023-09-18T02:43:24;22.20;99.90
16767;DHT22;8501;49.926;8.404;2023-09-18T02:45:50;22.30;99.90
16767;DHT22;8501;49.926;8.404;2023-09-18T02:48:16;22.30;99.90
16767;DHT22;8501;49.926;8.404;2023-09-18T02:50:41;22.20;99.90
16767;DHT22;8501;49.926;8.404;2023-09-18T02:53:11;22.20;99.90
16767;DHT22;8501;49.926;8.404;2023-09-18T02:55:41;22.20;99.90
16767;DHT22;8501;49.926;8.404;2023-09-18T02:58:06;22.20;99.90
16767;DHT22;8501;49.926;8.404;2023-09-18T03:00:34;22.20;99.90
16767;DHT22;8501;49.926;8.404;2023-09-18T03:02:59;22.10;99.90
16767;DHT22;8501;49.926;8.404;2023-09-18T03:05:25;22.10;99.90
16767;DHT22;8501;49.926;8.404;2023-09-18T03:07:51;22.00;99.90
16767;DHT22;8501;49.926;8.404;2023-09-18T03:10:17;22.00;99.90
16767;DHT22;8501;49.926;8.404;2023-09-18T03:12:47;21.90;99.90
16767;DHT22;8501;49.926;8.404;2023-09-18T03:15:12;21.90;99.90
16767;DHT22;8501;49.926;8.404;2023-09-18T03:17:38;21.90;99.90
16767;DHT22;8501;49.926;8.404;2023-09-18T03:20:06;21.90;99.90
16767;DHT22;8501;49.926;8.404;2023-09-18T03:22:32;21.90;99.90
16767;DHT22;8501;49.926;8.404;2023-09-18T03:24:58;21.90;99.90
16767;DHT22;8501;49.926;8.404;2023-09-18T03:27:23;21.90;99.90
16767;DHT22;8501;49.926;8.404;2023-09-18T03:29:54;21.80;99.90
16767;DHT22;8501;49.926;8.404;2023-09-18T03:32:19;21.80;99.90
16767;DHT22;8501;49.926;8.404;2023-09-18T03:34:45;21.80;99.90
16767;DHT22;8501;49.926;8.404;2023-09-18T03:37:11;21.80;99.90
16767;DHT22;8501;49.926;8.404;2023-09-18T03:39:36;21.80;99.90
16767;DHT22;8501;49.926;8.404;2023-09-18T03:42:02;21.80;99.90
16767;DHT22;8501;49.926;8.404;2023-09-18T03:44:28;21.80;99.90
16767;DHT22;8501;49.926;8.404;2023-09-18T03:46:53;21.80;99.90
16767;DHT22;8501;49.926;8.404;2023-09-18T03:49:19;21.80;99.90
16767;DHT22;8501;49.926;8.404;2023-09-18T03:51:44;21.80;99.90
16767;DHT22;8501;49.926;8.404;2023-09-18T03:54:10;21.70;99.90
16767;DHT22;8501;49.926;8.404;2023-09-18T03:56:35;21.80;99.90
16767;DHT22;8501;49.926;8.404;2023-09-18T03:59:01;21.70;99.90
16767;DHT22;8501;49.926;8.404;2023-09-18T04:01:27;21.70;99.90
16767;DHT22;8501;49.926;8.404;2023-09-18T04:03:53;21.70;99.90
16767;DHT22;8501;49.926;8.404;2023-09-18T04:06:21;21.70;99.90
16767;DHT22;8501;49.926;8.404;2023-09-18T04:08:46;21.70;99.90
16767;DHT22;8501;49.926;8.404;2023-09-18T04:11:12;21.70;99.90
16767;DHT22;8501;49.926;8.404;2023-09-18T04:13:37;21.60;99.90
16767;DHT22;8501;49.926;8.404;2023-09-18T04:16:04;21.60;99.90
16767;DHT22;8501;49.926;8.404;2023-09-18T04:18:30;21.50;99.90
16767;DHT22;8501;49.926;8.404;2023-09-18T04:20:55;21.60;99.90
16767;DHT22;8501;49.926;8.404;2023-09-18T04:23:25;21.50;99.90
16767;DHT22;8501;49.926;8.404;2023-09-18T04:25:52;21.60;99.90
16767;DHT22;8501;49.926;8.404;2023-09-18T04:28:20;21.60;99.90
16767;DHT22;8501;49.926;8.404;2023-09-18T04:30:45;21.60;99.90
16767;DHT22;8501;49.926;8.404;2023-09-18T04:33:12;21.60;99.90
16767;DHT22;8501;49.926;8.404;2023-09-18T04:35:38;21.60;99.90
16767;DHT22;8501;49.926;8.404;2023-09-18T04:38:06;21.60;99.90
16767;DHT22;8501;49.926;8.404;2023-09-18T04:40:32;21.70;99.90
16767;DHT22;8501;49.926;8.404;2023-09-18T04:42:58;21.70;99.90
16767;DHT22;8501;49.926;8.404;2023-09-18T04:45:24;21.70;99.90
16767;DHT22;8501;49.926;8.404;2023-09-18T04:47:51;21.70;99.90
16767;DHT22;8501;49.926;8.404;2023-09-18T04:50:17;21.60;99.90
16767;DHT22;8501;49.926;8.404;2023-09-18T04:52:42;21.60;99.90
16767;DHT22;8501;49.926;8.404;2023-09-18T04:55:09;21.60;99.90
16767;DHT22;8501;49.926;8.404;2023-09-18T04:57:35;21.60;99.90
16767;DHT22;8501;49.926;8.404;2023-09-18T05:00:01;21.50;99.90
16767;DHT22;8501;49.926;8.404;2023-09-18T05:02:27;21.50;99.90
16767;DHT22;8501;49.926;8.404;2023-09-18T05:04:55;21.50;99.90
16767;DHT22;8501;49.926;8.404;2023-09-18T05:07:21;21.50;99.90
16767;DHT22;8501;49.926;8.404;2023-09-18T05:09:46;21.50;99.90
16767;DHT22;8501;49.926;8.404;2023-09-18T05:12:12;21.50;99.90
16767;DHT22;8501;49.926;8.404;2023-09-18T05:14:42;21.50;99.90
16767;DHT22;8501;49.926;8.404;2023-09-18T05:17:15;21.50;99.90
16767;DHT22;8501;49.926;8.404;2023-09-18T05:19:41;21.50;99.90
16767;DHT22;8501;49.926;8.404;2023-09-18T05:22:11;21.50;99.90
16767;DHT22;8501;49.926;8.404;2023-09-18T05:24:38;21.50;99.90
16767;DHT22;8501;49.926;8.404;2023-09-18T05:27:04;21.50;99.90
16767;DHT22;8501;49.926;8.404;2023-09-18T05:29:31;21.60;99.90
16767;DHT22;8501;49.926;8.404;2023-09-18T05:31:57;21.50;99.90
16767;DHT22;8501;49.926;8.404;2023-09-18T05:34:22;21.50;99.90
16767;DHT22;8501;49.926;8.404;2023-09-18T05:36:48;21.50;99.90
16767;DHT22;8501;49.926;8.404;2023-09-18T05:39:14;21.50;99.90
16767;DHT22;8501;49.926;8.404;2023-09-18T05:41:39;21.50;99.90
16767;DHT22;8501;49.926;8.404;2023-09-18T05:44:05;21.60;99.90
16767;DHT22;8501;49.926;8.404;2023-09-18T05:46:34;21.50;99.90
16767;DHT22;8501;49.926;8.404;2023-09-18T05:49:01;21.50;99.90
16767;DHT22;8501;49.926;8.404;2023-09-18T05:51:27;21.50;99.90
16767;DHT22;8501;49.926;8.404;2023-09-18T05:53:53;21.50;99.90
16767;DHT22;8501;49.926;8.404;2023-09-18T05:56:18;21.50;99.90
16767;DHT22;8501;49.926;8.404;2023-09-18T05:58:44;21.50;99.90
16767;DHT22;8501;49.926;8.404;2023-09-18T06:01:09;21.50;99.90
16767;DHT22;8501;49.926;8.404;2023-09-18T06:03:35;21.50;99.90
16767;DHT22;8501;49.926;8.404;2023-09-18T06:06:05;21.40;99.90
16767;DHT22;8501;49.926;8.404;2023-09-18T06:08:31;21.50;99.90
16767;DHT22;8501;49.926;8.404;2023-09-18T06:10:57;21.50;99.90
16767;DHT22;8501;49.926;8.404;2023-09-18T06:13:25;21.50;99.90
16767;DHT22;8501;49.926;8.404;2023-09-18T06:15:52;21.50;99.90
16767;DHT22;8501;49.926;8.404;2023-09-18T06:18:22;21.50;99.90
16767;DHT22;8501;49.926;8.404;2023-09-18T06:20:48;21.50;99.90
16767;DHT22;8501;49.926;8.404;2023-09-18T06:23:14;21.50;99.90
16767;DHT22;8501;49.926;8.404;2023-09-18T06:25:40;21.50;99.90
16767;DHT22;8501;49.926;8.404;2023-09-18T06:28:05;21.50;99.90
16767;DHT22;8501;49.926;8.404;2023-09-18T06:30:32;21.50;99.90
16767;DHT22;8501;49.926;8.404;2023-09-18T06:33:00;21.50;99.90
16767;DHT22;8501;49.926;8.404;2023-09-18T06:35:26;21.50;99.90
16767;DHT22;8501;49.926;8.404;2023-09-18T06:37:52;21.60;99.90
16767;DHT22;8501;49.926;8.404;2023-09-18T06:40:19;21.50;99.90
16767;DHT22;8501;49.926;8.404;2023-09-18T06:42:45;21.50;99.90
16767;DHT22;8501;49.926;8.404;2023-09-18T06:45:11;21.50;99.90
16767;DHT22;8501;49.926;8.404;2023-09-18T06:47:36;21.50;99.90
16767;DHT22;8501;49.926;8.404;2023-09-18T06:50:02;21.50;99.90
16767;DHT22;8501;49.926;8.404;2023-09-18T06:52:30;21.60;99.90
16767;DHT22;8501;49.926;8.404;2023-09-18T06:54:55;21.50;99.90
16767;DHT22;8501;49.926;8.404;2023-09-18T06:57:23;21.60;99.90
16767;DHT22;8501;49.926;8.404;2023-09-18T06:59:49;21.50;99.90
16767;DHT22;8501;49.926;8.404;2023-09-18T07:02:15;21.50;99.90
16767;DHT22;8501;49.926;8.404;2023-09-18T07:04:41;21.50;99.90
16767;DHT22;8501;49.926;8.404;2023-09-18T07:07:11;21.60;99.90
16767;DHT22;8501;49.926;8.404;2023-09-18T07:09:38;21.50;99.90
16767;DHT22;8501;49.926;8.404;2023-09-18T07:12:04;21.60;99.90
16767;DHT22;8501;49.926;8.404;2023-09-18T07:14:29;21.50;99.90
16767;DHT22;8501;49.926;8.404;2023-09-18T07:16:56;21.50;99.90
16767;DHT22;8501;49.926;8.404;2023-09-18T07:19:21;21.50;99.90
16767;DHT22;8501;49.926;8.404;2023-09-18T07:21:47;21.40;99.90
16767;DHT22;8501;49.926;8.404;2023-09-18T07:24:12;21.40;99.90
16767;DHT22;8501;49.926;8.404;2023-09-18T07:26:46;21.40;99.90
16767;DHT22;8501;49.926;8.404;2023-09-18T07:29:15;21.40;99.90
16767;DHT22;8501;49.926;8.404;2023-09-18T07:31:42;21.50;99.90
16767;DHT22;8501;49.926;8.404;2023-09-18T07:34:08;21.40;99.90
16767;DHT22;8501;49.926;8.404;2023-09-18T07:36:34;21.40;99.90
16767;DHT22;8501;49.926;8.404;2023-09-18T07:38:59;21.50;99.90
16767;DHT22;8501;49.926;8.404;2023-09-18T07:41:25;21.40;99.90
16767;DHT22;8501;49.926;8.404;2023-09-18T07:43:50;21.50;99.90
16767;DHT22;8501;49.926;8.404;2023-09-18T07:46:16;21.50;99.90
16767;DHT22;8501;49.926;8.404;2023-09-18T07:48:42;21.60;99.90
16767;DHT22;8501;49.926;8.404;2023-09-18T07:51:11;21.50;99.90
16767;DHT22;8501;49.926;8.404;2023-09-18T07:53:36;21.50;99.90
16767;DHT22;8501;49.926;8.404;2023-09-18T07:56:03;21.60;99.90
16767;DHT22;8501;49.926;8.404;2023-09-18T07:58:30;21.60;99.90
16767;DHT22;8501;49.926;8.404;2023-09-18T08:00:56;21.60;99.90
16767;DHT22;8501;49.926;8.404;2023-09-18T08:03:23;21.60;99.90
16767;DHT22;8501;49.926;8.404;2023-09-18T08:05:55;21.60;99.90
16767;DHT22;8501;49.926;8.404;2023-09-18T08:08:21;21.60;99.90
16767;DHT22;8501;49.926;8.404;2023-09-18T08:10:50;21.70;99.90
16767;DHT22;8501;49.926;8.404;2023-09-18T08:13:16;21.70;99.90
16767;DHT22;8501;49.926;8.404;2023-09-18T08:15:43;21.70;99.90
16767;DHT22;8501;49.926;8.404;2023-09-18T08:18:12;21.70;99.90
16767;DHT22;8501;49.926;8.404;2023-09-18T08:20:41;21.70;99.90
16767;DHT22;8501;49.926;8.404;2023-09-18T08:23:08;21.70;99.90
16767;DHT22;8501;49.926;8.404;2023-09-18T08:25:33;21.80;99.90
16767;DHT22;8501;49.926;8.404;2023-09-18T08:27:59;21.90;99.90
16767;DHT22;8501;49.926;8.404;2023-09-18T08:30:25;21.90;99.90
16767;DHT22;8501;49.926;8.404;2023-09-18T08:32:51;21.90;99.90
16767;DHT22;8501;49.926;8.404;2023-09-18T08:35:16;21.90;99.90
16767;DHT22;8501;49.926;8.404;2023-09-18T08:37:43;21.90;99.90
16767;DHT22;8501;49.926;8.404;2023-09-18T08:40:12;22.00;99.90
16767;DHT22;8501;49.926;8.404;2023-09-18T08:42:43;22.00;99.90
16767;DHT22;8501;49.926;8.404;2023-09-18T08:45:10;22.00;99.90
16767;DHT22;8501;49.926;8.404;2023-09-18T08:47:40;22.00;99.90
16767;DHT22;8501;49.926;8.404;2023-09-18T08:50:08;22.00;99.90
16767;DHT22;8501;49.926;8.404;2023-09-18T08:52:35;22.00;99.90
16767;DHT22;8501;49.926;8.404;2023-09-18T08:55:01;22.00;99.90
16767;DHT22;8501;49.926;8.404;2023-09-18T08:57:29;22.00;99.90
16767;DHT22;8501;49.926;8.404;2023-09-18T08:59:56;22.00;99.90
16767;DHT22;8501;49.926;8.404;2023-09-18T09:02:22;22.10;99.90
16767;DHT22;8501;49.926;8.404;2023-09-18T09:04:48;22.10;99.90
16767;DHT22;8501;49.926;8.404;2023-09-18T09:07:13;22.10;99.90
16767;DHT22;8501;49.926;8.404;2023-09-18T09:09:39;22.10;99.90
16767;DHT22;8501;49.926;8.404;2023-09-18T09:12:07;22.10;99.90
16767;DHT22;8501;49.926;8.404;2023-09-18T09:14:32;22.10;99.90
16767;DHT22;8501;49.926;8.404;2023-09-18T09:16:58;22.20;99.90
16767;DHT22;8501;49.926;8.404;2023-09-18T09:19:32;22.20;99.90
16767;DHT22;8501;49.926;8.404;2023-09-18T09:21:58;22.20;99.90
16767;DHT22;8501;49.926;8.404;2023-09-18T09:24:43;22.30;99.90
16767;DHT22;8501;49.926;8.404;2023-09-18T09:27:10;22.30;99.90
16767;DHT22;8501;49.926;8.404;2023-09-18T09:29:37;22.30;99.90
16767;DHT22;8501;49.926;8.404;2023-09-18T09:32:16;22.40;99.90
16767;DHT22;8501;49.926;8.404;2023-09-18T09:34:43;22.30;99.90
16767;DHT22;8501;49.926;8.404;2023-09-18T09:37:09;22.40;99.90
16767;DHT22;8501;49.926;8.404;2023-09-18T09:39:35;22.30;99.90
16767;DHT22;8501;49.926;8.404;2023-09-18T09:42:10;22.30;99.90
16767;DHT22;8501;49.926;8.404;2023-09-18T09:44:36;22.30;99.90
16767;DHT22;8501;49.926;8.404;2023-09-18T09:47:06;22.30;99.90
16767;DHT22;8501;49.926;8.404;2023-09-18T09:49:45;22.30;99.90
16767;DHT22;8501;49.926;8.404;2023-09-18T09:52:19;22.30;99.90
16767;DHT22;8501;49.926;8.404;2023-09-18T09:54:48;22.30;99.90
16767;DHT22;8501;49.926;8.404;2023-09-18T09:57:13;22.30;99.90
16767;DHT22;8501;49.926;8.404;2023-09-18T09:59:39;22.30;99.90
16767;DHT22;8501;49.926;8.404;2023-09-18T10:02:10;22.20;99.90
16767;DHT22;8501;49.926;8.404;2023-09-18T10:04:38;22.30;99.90
16767;DHT22;8501;49.926;8.404;2023-09-18T10:07:07;22.40;99.90
16767;DHT22;8501;49.926;8.404;2023-09-18T10:09:35;22.40;99.90
16767;DHT22;8501;49.926;8.404;2023-09-18T10:12:04;22.40;99.90
16767;DHT22;8501;49.926;8.404;2023-09-18T10:14:33;22.40;99.90
16767;DHT22;8501;49.926;8.404;2023-09-18T10:17:12;22.40;99.90
16767;DHT22;8501;49.926;8.404;2023-09-18T10:19:51;22.40;99.90
16767;DHT22;8501;49.926;8.404;2023-09-18T10:22:29;22.40;99.90
16767;DHT22;8501;49.926;8.404;2023-09-18T10:25:04;22.40;99.90
16767;DHT22;8501;49.926;8.404;2023-09-18T10:27:33;22.40;99.90
16767;DHT22;8501;49.926;8.404;2023-09-18T10:30:00;22.40;99.90
16767;DHT22;8501;49.926;8.404;2023-09-18T10:32:30;22.50;99.90
16767;DHT22;8501;49.926;8.404;2023-09-18T10:34:56;22.50;99.90
16767;DHT22;8501;49.926;8.404;2023-09-18T10:37:23;22.50;99.90
16767;DHT22;8501;49.926;8.404;2023-09-18T10:39:50;22.50;99.90
16767;DHT22;8501;49.926;8.404;2023-09-18T10:42:18;22.50;99.90
16767;DHT22;8501;49.926;8.404;2023-09-18T10:44:46;22.60;99.90
16767;DHT22;8501;49.926;8.404;2023-09-18T10:47:12;22.60;99.90
16767;DHT22;8501;49.926;8.404;2023-09-18T10:49:39;22.60;99.90
16767;DHT22;8501;49.926;8.404;2023-09-18T10:52:11;22.60;99.90
16767;DHT22;8501;49.926;8.404;2023-09-18T10:54:37;22.70;99.90
16767;DHT22;8501;49.926;8.404;2023-09-18T10:57:03;22.70;99.90
16767;DHT22;8501;49.926;8.404;2023-09-18T10:59:29;22.70;99.90
16767;DHT22;8501;49.926;8.404;2023-09-18T11:01:56;22.60;99.90
16767;DHT22;8501;49.926;8.404;2023-09-18T11:04:23;22.60;99.90
16767;DHT22;8501;49.926;8.404;2023-09-18T11:09:28;22.70;99.90
16767;DHT22;8501;49.926;8.404;2023-09-18T11:14:23;22.70;99.90
16767;DHT22;8501;49.926;8.404;2023-09-18T11:16:49;22.70;99.90
16767;DHT22;8501;49.926;8.404;2023-09-18T11:19:18;22.80;99.90
16767;DHT22;8501;49.926;8.404;2023-09-18T11:21:45;22.70;99.90
16767;DHT22;8501;49.926;8.404;2023-09-18T11:24:21;22.70;99.90
16767;DHT22;8501;49.926;8.404;2023-09-18T11:26:49;22.80;99.90
16767;DHT22;8501;49.926;8.404;2023-09-18T11:29:17;22.80;99.90
16767;DHT22;8501;49.926;8.404;2023-09-18T11:31:48;22.80;99.90
16767;DHT22;8501;49.926;8.404;2023-09-18T11:34:24;22.80;99.90
16767;DHT22;8501;49.926;8.404;2023-09-18T11:36:52;22.90;99.90
16767;DHT22;8501;49.926;8.404;2023-09-18T11:39:33;22.90;99.90
16767;DHT22;8501;49.926;8.404;2023-09-18T11:42:12;22.90;99.90
16767;DHT22;8501;49.926;8.404;2023-09-18T11:44:41;23.00;99.90
16767;DHT22;8501;49.926;8.404;2023-09-18T11:47:08;23.00;99.90
16767;DHT22;8501;49.926;8.404;2023-09-18T11:49:38;23.00;99.90
16767;DHT22;8501;49.926;8.404;2023-09-18T11:52:07;23.00;99.90
16767;DHT22;8501;49.926;8.404;2023-09-18T11:54:33;23.00;99.90
16767;DHT22;8501;49.926;8.404;2023-09-18T11:57:03;23.00;99.90
16767;DHT22;8501;49.926;8.404;2023-09-18T11:59:40;23.00;99.90
16767;DHT22;8501;49.926;8.404;2023-09-18T12:02:08;23.00;99.90
16767;DHT22;8501;49.926;8.404;2023-09-18T12:04:35;23.00;99.90
16767;DHT22;8501;49.926;8.404;2023-09-18T12:07:01;23.00;99.90
16767;DHT22;8501;49.926;8.404;2023-09-18T12:09:32;23.00;99.90
16767;DHT22;8501;49.926;8.404;2023-09-18T12:11:59;23.00;99.90
16767;DHT22;8501;49.926;8.404;2023-09-18T12:14:33;23.00;99.90
16767;DHT22;8501;49.926;8.404;2023-09-18T12:17:02;23.10;99.90
16767;DHT22;8501;49.926;8.404;2023-09-18T12:19:29;23.20;99.90
16767;DHT22;8501;49.926;8.404;2023-09-18T12:21:55;23.20;99.90
16767;DHT22;8501;49.926;8.404;2023-09-18T12:24:24;23.30;99.90
16767;DHT22;8501;49.926;8.404;2023-09-18T12:26:54;23.40;99.90
16767;DHT22;8501;49.926;8.404;2023-09-18T12:29:20;23.40;99.90
16767;DHT22;8501;49.926;8.404;2023-09-18T12:31:47;23.50;99.90
16767;DHT22;8501;49.926;8.404;2023-09-18T12:34:20;23.70;99.90
16767;DHT22;8501;49.926;8.404;2023-09-18T12:36:47;23.70;99.90
16767;DHT22;8501;49.926;8.404;2023-09-18T12:39:13;23.80;99.90
16767;DHT22;8501;49.926;8.404;2023-09-18T12:41:42;23.90;99.90
16767;DHT22;8501;49.926;8.404;2023-09-18T12:44:09;23.90;99.90
16767;DHT22;8501;49.926;8.404;2023-09-18T12:46:36;24.00;99.90
16767;DHT22;8501;49.926;8.404;2023-09-18T12:49:16;24.00;99.90
16767;DHT22;8501;49.926;8.404;2023-09-18T12:51:41;23.90;99.90
16767;DHT22;8501;49.926;8.404;2023-09-18T12:54:07;23.90;99.90
16767;DHT22;8501;49.926;8.404;2023-09-18T12:56:32;24.00;99.90
16767;DHT22;8501;49.926;8.404;2023-09-18T12:58:58;24.00;99.90
16767;DHT22;8501;49.926;8.404;2023-09-18T13:01:24;24.00;99.90
16767;DHT22;8501;49.926;8.404;2023-09-18T13:03:54;24.00;99.90
16767;DHT22;8501;49.926;8.404;2023-09-18T13:06:21;23.90;99.90
16767;DHT22;8501;49.926;8.404;2023-09-18T13:08:47;23.90;99.90
16767;DHT22;8501;49.926;8.404;2023-09-18T13:11:13;23.90;99.90
16767;DHT22;8501;49.926;8.404;2023-09-18T13:13:42;23.90;99.90
16767;DHT22;8501;49.926;8.404;2023-09-18T13:16:10;23.90;99.90
16767;DHT22;8501;49.926;8.404;2023-09-18T13:18:36;23.90;99.90
16767;DHT22;8501;49.926;8.404;2023-09-18T13:21:09;23.90;99.90
16767;DHT22;8501;49.926;8.404;2023-09-18T13:23:36;24.00;99.90
16767;DHT22;8501;49.926;8.404;2023-09-18T13:26:04;24.00;99.90
16767;DHT22;8501;49.926;8.404;2023-09-18T13:28:29;23.90;99.90
16767;DHT22;8501;49.926;8.404;2023-09-18T13:30:56;23.90;99.90
16767;DHT22;8501;49.926;8.404;2023-09-18T13:33:22;23.90;99.90
16767;DHT22;8501;49.926;8.404;2023-09-18T13:35:49;23.90;99.90
16767;DHT22;8501;49.926;8.404;2023-09-18T13:38:14;24.00;99.90
16767;DHT22;8501;49.926;8.404;2023-09-18T13:40:41;24.00;99.90
16767;DHT22;8501;49.926;8.404;2023-09-18T13:43:08;24.00;99.90
16767;DHT22;8501;49.926;8.404;2023-09-18T13:45:35;24.00;99.90
16767;DHT22;8501;49.926;8.404;2023-09-18T13:48:01;24.10;99.90
16767;DHT22;8501;49.926;8.404;2023-09-18T13:50:27;24.10;99.90
16767;DHT22;8501;49.926;8.404;2023-09-18T13:52:52;24.20;99.90
16767;DHT22;8501;49.926;8.404;2023-09-18T13:55:19;24.20;99.90
16767;DHT22;8501;49.926;8.404;2023-09-18T13:57:44;24.20;99.90
16767;DHT22;8501;49.926;8.404;2023-09-18T14:00:10;24.30;99.90
16767;DHT22;8501;49.926;8.404;2023-09-18T14:02:38;24.60;99.90
16767;DHT22;8501;49.926;8.404;2023-09-18T14:05:05;24.80;99.90
16767;DHT22;8501;49.926;8.404;2023-09-18T14:07:31;24.90;99.90
16767;DHT22;8501;49.926;8.404;2023-09-18T14:09:56;24.90;99.90
16767;DHT22;8501;49.926;8.404;2023-09-18T14:12:23;25.20;99.90
16767;DHT22;8501;49.926;8.404;2023-09-18T14:14:48;25.70;99.90
16767;DHT22;8501;49.926;8.404;2023-09-18T14:17:14;26.20;99.90
16767;DHT22;8501;49.926;8.404;2023-09-18T14:19:42;26.70;99.90
16767;DHT22;8501;49.926;8.404;2023-09-18T14:22:08;27.10;99.90
16767;DHT22;8501;49.926;8.404;2023-09-18T14:24:34;27.40;99.90
16767;DHT22;8501;49.926;8.404;2023-09-18T14:27:00;27.50;99.90
16767;DHT22;8501;49.926;8.404;2023-09-18T14:29:26;27.30;99.90
16767;DHT22;8501;49.926;8.404;2023-09-18T14:31:52;27.00;99.90
16767;DHT22;8501;49.926;8.404;2023-09-18T14:34:18;26.60;99.90
16767;DHT22;8501;49.926;8.404;2023-09-18T14:36:43;26.00;99.90
16767;DHT22;8501;49.926;8.404;2023-09-18T14:39:10;25.60;99.90
16767;DHT22;8501;49.926;8.404;2023-09-18T14:41:37;25.40;99.90
16767;DHT22;8501;49.926;8.404;2023-09-18T14:44:08;25.10;99.90
16767;DHT22;8501;49.926;8.404;2023-09-18T14:46:37;25.10;99.90
16767;DHT22;8501;49.926;8.404;2023-09-18T14:49:04;25.00;99.90
16767;DHT22;8501;49.926;8.404;2023-09-18T14:51:30;24.90;99.90
16767;DHT22;8501;49.926;8.404;2023-09-18T14:53:58;25.30;99.90
16767;DHT22;8501;49.926;8.404;2023-09-18T14:56:24;25.40;99.90
16767;DHT22;8501;49.926;8.404;2023-09-18T14:59:08;25.40;99.90
16767;DHT22;8501;49.926;8.404;2023-09-18T15:01:34;25.10;99.90
16767;DHT22;8501;49.926;8.404;2023-09-18T15:04:00;25.10;99.90
16767;DHT22;8501;49.926;8.404;2023-09-18T15:06:25;25.30;99.90
16767;DHT22;8501;49.926;8.404;2023-09-18T15:08:52;25.70;99.90
16767;DHT22;8501;49.926;8.404;2023-09-18T15:11:18;25.40;99.90
16767;DHT22;8501;49.926;8.404;2023-09-18T15:13:44;25.10;99.90
16767;DHT22;8501;49.926;8.404;2023-09-18T15:16:10;24.90;99.90
16767;DHT22;8501;49.926;8.404;2023-09-18T15:18:36;24.80;99.90
16767;DHT22;8501;49.926;8.404;2023-09-18T15:21:02;24.70;99.90
16767;DHT22;8501;49.926;8.404;2023-09-18T15:23:27;24.60;99.90
16767;DHT22;8501;49.926;8.404;2023-09-18T15:25:55;24.50;99.90
16767;DHT22;8501;49.926;8.404;2023-09-18T15:28:21;24.50;99.90
16767;DHT22;8501;49.926;8.404;2023-09-18T15:30:49;24.40;99.90
16767;DHT22;8501;49.926;8.404;2023-09-18T15:33:15;24.40;99.90
16767;DHT22;8501;49.926;8.404;2023-09-18T15:35:42;24.40;99.90
16767;DHT22;8501;49.926;8.404;2023-09-18T15:38:08;24.30;99.90
16767;DHT22;8501;49.926;8.404;2023-09-18T15:40:34;24.30;99.90
16767;DHT22;8501;49.926;8.404;2023-09-18T15:42:59;24.30;99.90
16767;DHT22;8501;49.926;8.404;2023-09-18T15:45:25;24.30;99.90
16767;DHT22;8501;49.926;8.404;2023-09-18T15:47:51;24.30;99.90
16767;DHT22;8501;49.926;8.404;2023-09-18T15:50:17;24.30;99.90